Daily Summary for November 30, 2020 Units:  Metric    English   Both
Daily Weekly Monthly Yearly
  Current: High: Low: Average:
Temperature: 17.8 °C 26 °C 13.9 °C 18.7 °C
Dew Point: 12.9 °C 13.4 °C 10.5 °C 11.8 °C
Humidity: 73% 81% 43.6% 66%
Wind Speed: 6.1km/h 9.4km/h 3.2km/h 6.2km/h
Wind Gust: 17.7km/h 27.4km/h - -
WindEast - - East
Pressure: 1012.8 hPa 1015.1 hPa 1009.9 hPa -
Precipitation: 0.0 mm      
 
 
Tabular Data for November 30, 2020
Time Temperature Dew Point Pressure Wind Wind Speed Wind Gust Humidity Rainfall Rate (Hourly) solar
00:04 16.9 °C 10.9 °C 1009.9 hPa ESE 6.4 km/h 19.3 km/h 67.6% 0.0 mm 0 W/m2
00:09 16.7 °C 11.1 °C 1010.0 hPa ESE 7.7 km/h 19.3 km/h 69.3% 0.0 mm 0 W/m2
00:14 16.5 °C 11.2 °C 1010.1 hPa ESE 7.4 km/h 19.3 km/h 70.8% 0.0 mm 0 W/m2
00:19 16.3 °C 11.2 °C 1010.3 hPa ESE 6.4 km/h 24.1 km/h 72% 0.0 mm 0 W/m2
00:24 16.1 °C 11.2 °C 1010.5 hPa ESE 7.4 km/h 24.1 km/h 72.6% 0.0 mm 0 W/m2
00:29 15.9 °C 11.2 °C 1010.5 hPa ESE 5.8 km/h 24.1 km/h 73.8% 0.0 mm 0 W/m2
00:34 15.7 °C 11.2 °C 1010.6 hPa ESE 4.2 km/h 14.5 km/h 74.8% 0.0 mm 0 W/m2
00:39 15.6 °C 11.2 °C 1010.7 hPa ESE 4.5 km/h 19.3 km/h 75% 0.0 mm 0 W/m2
00:44 15.5 °C 11.1 °C 1010.8 hPa ESE 6.8 km/h 27.4 km/h 75% 0.0 mm 0 W/m2
00:49 15.3 °C 11.1 °C 1010.9 hPa East 8 km/h 27.4 km/h 76% 0.0 mm 0 W/m2
00:54 15.2 °C 11.1 °C 1011.1 hPa East 8 km/h 27.4 km/h 76.3% 0.0 mm 0 W/m2
00:59 15.2 °C 11.2 °C 1011.2 hPa East 6.8 km/h 19.3 km/h 77% 0.0 mm 0 W/m2
01:04 15.2 °C 11.2 °C 1011.3 hPa East 5.8 km/h 19.3 km/h 77% 0.0 mm 0 W/m2
01:09 15.2 °C 11.2 °C 1011.4 hPa East 4.8 km/h 16.1 km/h 77.4% 0.0 mm 0 W/m2
01:14 15.2 °C 11.2 °C 1011.5 hPa ESE 6.1 km/h 17.7 km/h 77.5% 0.0 mm 0 W/m2
01:19 15.2 °C 11.3 °C 1011.5 hPa ESE 6.4 km/h 17.7 km/h 77.8% 0.0 mm 0 W/m2
01:24 15.3 °C 11.3 °C 1011.6 hPa East 5.1 km/h 17.7 km/h 77.2% 0.0 mm 0 W/m2
01:29 15.3 °C 11.3 °C 1011.6 hPa East 4.8 km/h 17.7 km/h 77.2% 0.0 mm 0 W/m2
01:34 15.3 °C 11.3 °C 1011.6 hPa East 6.1 km/h 20.9 km/h 77% 0.0 mm 0 W/m2
01:39 15.4 °C 11.4 °C 1011.6 hPa East 8 km/h 20.9 km/h 77% 0.0 mm 0 W/m2
01:44 15.4 °C 11.4 °C 1011.8 hPa East 6.8 km/h 20.9 km/h 77% 0.0 mm 0 W/m2
01:49 15.4 °C 11.4 °C 1011.8 hPa East 6.4 km/h 19.3 km/h 77% 0.0 mm 0 W/m2
01:54 15.4 °C 11.4 °C 1011.8 hPa East 7.4 km/h 19.3 km/h 77% 0.0 mm 0 W/m2
01:59 15.3 °C 11.3 °C 1011.8 hPa East 7.7 km/h 19.3 km/h 77% 0.0 mm 0 W/m2
02:04 15.3 °C 11.3 °C 1011.7 hPa East 5.1 km/h 16.1 km/h 77% 0.0 mm 0 W/m2
02:09 15.2 °C 11.3 °C 1011.7 hPa ESE 6.1 km/h 17.7 km/h 77.4% 0.0 mm 0 W/m2
02:14 15.2 °C 11.3 °C 1011.7 hPa East 7.7 km/h 17.7 km/h 78% 0.0 mm 0 W/m2
02:19 15.1 °C 11.3 °C 1011.7 hPa East 6.8 km/h 17.7 km/h 78% 0.0 mm 0 W/m2
02:24 15.1 °C 11.2 °C 1011.8 hPa East 5.1 km/h 16.1 km/h 78% 0.0 mm 0 W/m2
02:29 15.1 °C 11.5 °C 1011.7 hPa East 5.5 km/h 16.1 km/h 78.8% 0.0 mm 0 W/m2
02:34 15.1 °C 11.5 °C 1011.6 hPa East 5.8 km/h 16.1 km/h 79% 0.0 mm 0 W/m2
02:39 15.1 °C 11.5 °C 1011.6 hPa East 6.1 km/h 16.1 km/h 79% 0.0 mm 0 W/m2
02:44 15.1 °C 11.5 °C 1011.6 hPa ESE 6.4 km/h 14.5 km/h 79% 0.0 mm 0 W/m2
02:49 15.1 °C 11.5 °C 1011.5 hPa East 6.4 km/h 17.7 km/h 79% 0.0 mm 0 W/m2
02:54 15.1 °C 11.5 °C 1011.5 hPa East 7.7 km/h 17.7 km/h 79% 0.0 mm 0 W/m2
02:59 15.1 °C 11.5 °C 1011.5 hPa ESE 6.8 km/h 17.7 km/h 79% 0.0 mm 0 W/m2
03:04 15.1 °C 11.5 °C 1011.5 hPa East 6.4 km/h 20.9 km/h 79% 0.0 mm 0 W/m2
03:09 15.1 °C 11.5 °C 1011.5 hPa East 6.4 km/h 20.9 km/h 79% 0.0 mm 0 W/m2
03:14 15.1 °C 11.5 °C 1011.6 hPa East 6.4 km/h 20.9 km/h 79% 0.0 mm 0 W/m2
03:19 15.1 °C 11.5 °C 1011.6 hPa East 6.4 km/h 17.7 km/h 79% 0.0 mm 0 W/m2
03:24 15.1 °C 11.5 °C 1011.6 hPa East 6.4 km/h 17.7 km/h 79% 0.0 mm 0 W/m2
03:29 15.1 °C 11.5 °C 1011.6 hPa ESE 6.4 km/h 17.7 km/h 79% 0.0 mm 0 W/m2
03:34 15.1 °C 11.5 °C 1011.6 hPa East 6.4 km/h 16.1 km/h 79% 0.0 mm 0 W/m2
03:39 15.1 °C 11.4 °C 1011.6 hPa East 6.8 km/h 16.1 km/h 79% 0.0 mm 0 W/m2
03:44 15.1 °C 11.4 °C 1011.6 hPa East 6.4 km/h 19.3 km/h 79% 0.0 mm 0 W/m2
03:49 15 °C 11.4 °C 1011.6 hPa East 5.8 km/h 19.3 km/h 79% 0.0 mm 0 W/m2
03:54 14.9 °C 11.3 °C 1011.5 hPa East 7.1 km/h 19.3 km/h 79% 0.0 mm 0 W/m2
03:59 14.9 °C 11.4 °C 1011.5 hPa East 7.4 km/h 19.3 km/h 79.7% 0.0 mm 0 W/m2
04:04 14.9 °C 11.4 °C 1011.5 hPa East 5.5 km/h 19.3 km/h 80% 0.0 mm 0 W/m2
04:09 14.8 °C 11.4 °C 1011.5 hPa East 4.8 km/h 19.3 km/h 80% 0.0 mm 0 W/m2
04:14 14.8 °C 11.3 °C 1011.6 hPa ESE 4.8 km/h 19.3 km/h 79.7% 0.0 mm 0 W/m2
04:19 14.8 °C 11.4 °C 1011.6 hPa ESE 4.8 km/h 14.5 km/h 80% 0.0 mm 0 W/m2
04:24 14.8 °C 11.4 °C 1011.8 hPa ESE 4.2 km/h 12.9 km/h 80% 0.0 mm 0 W/m2
04:29 14.8 °C 11.4 °C 1011.8 hPa East 4.8 km/h 14.5 km/h 80% 0.0 mm 0 W/m2
04:34 14.7 °C 11.3 °C 1011.8 hPa East 4.8 km/h 14.5 km/h 80% 0.0 mm 0 W/m2
04:39 14.7 °C 11.3 °C 1011.9 hPa East 4.8 km/h 16.1 km/h 80% 0.0 mm 0 W/m2
04:44 14.7 °C 11.3 °C 1011.9 hPa East 6.4 km/h 16.1 km/h 80% 0.0 mm 0 W/m2
04:49 14.7 °C 11.3 °C 1011.9 hPa ESE 4.9 km/h 16.1 km/h 80% 0.0 mm 0 W/m2
04:54 14.7 °C 11.3 °C 1012.0 hPa ESE 4.8 km/h 14.5 km/h 80% 0.0 mm 0 W/m2
04:59 14.7 °C 11.3 °C 1012.0 hPa East 4.8 km/h 14.5 km/h 80% 0.0 mm 0 W/m2
05:04 14.7 °C 11.3 °C 1012.0 hPa East 4.2 km/h 12.9 km/h 80% 0.0 mm 0 W/m2
05:09 14.7 °C 11.3 °C 1012.0 hPa East 4.8 km/h 14.5 km/h 80% 0.0 mm 0 W/m2
05:14 14.6 °C 11.2 °C 1012.2 hPa ESE 5.8 km/h 16.1 km/h 80% 0.0 mm 0 W/m2
05:19 14.6 °C 11.2 °C 1012.2 hPa East 6.4 km/h 16.1 km/h 80% 0.0 mm 0 W/m2
05:24 14.5 °C 11.1 °C 1012.2 hPa East 6.4 km/h 16.1 km/h 80% 0.0 mm 0 W/m2
05:29 14.4 °C 11.1 °C 1012.3 hPa East 6.4 km/h 17.7 km/h 80% 0.0 mm 0 W/m2
05:34 14.4 °C 11 °C 1012.5 hPa East 7.1 km/h 17.7 km/h 80% 0.0 mm 0 W/m2
05:39 14.3 °C 11 °C 1012.6 hPa East 6.8 km/h 17.7 km/h 80% 0.0 mm 0 W/m2
05:44 14.4 °C 11 °C 1012.6 hPa ESE 5.5 km/h 14.5 km/h 80% 0.0 mm 0 W/m2
05:49 14.4 °C 11 °C 1012.7 hPa ESE 4.8 km/h 16.1 km/h 79.7% 0.0 mm 0 W/m2
05:54 14.4 °C 10.8 °C 1012.7 hPa ESE 6.4 km/h 19.3 km/h 79% 0.0 mm 7 W/m2
05:59 14.4 °C 10.8 °C 1012.7 hPa ESE 7.7 km/h 22.5 km/h 79% 0.0 mm 11 W/m2
06:04 14.4 °C 10.8 °C 1012.8 hPa ESE 8 km/h 22.5 km/h 79.1% 0.0 mm 12 W/m2
06:09 14.4 °C 10.8 °C 1012.9 hPa East 6.8 km/h 22.5 km/h 79.1% 0.0 mm 12 W/m2
06:14 14.4 °C 10.8 °C 1012.9 hPa ESE 6.4 km/h 17.7 km/h 79% 0.0 mm 16 W/m2
06:19 14.4 °C 10.8 °C 1013.0 hPa ESE 7.1 km/h 17.7 km/h 79% 0.0 mm 21 W/m2
06:24 14.4 °C 10.8 °C 1013.1 hPa ESE 7.1 km/h 17.7 km/h 79% 0.0 mm 26 W/m2
06:29 14.4 °C 10.8 °C 1013.1 hPa East 7.1 km/h 25.7 km/h 79% 0.0 mm 32 W/m2
06:34 14.4 °C 10.8 °C 1013.1 hPa East 7.7 km/h 25.7 km/h 79% 0.0 mm 33 W/m2
06:39 14.4 °C 10.7 °C 1013.1 hPa East 7.1 km/h 25.7 km/h 79% 0.0 mm 30 W/m2
06:44 14.3 °C 10.7 °C 1013.2 hPa East 6.1 km/h 17.7 km/h 78.8% 0.0 mm 37 W/m2
06:49 14.3 °C 10.5 °C 1013.2 hPa East 6.7 km/h 19.3 km/h 78% 0.0 mm 37 W/m2
06:54 14.3 °C 10.5 °C 1013.2 hPa East 9.3 km/h 19.3 km/h 78% 0.0 mm 42 W/m2
06:59 14.3 °C 10.5 °C 1013.3 hPa East 9.4 km/h 19.3 km/h 78% 0.0 mm 53 W/m2
07:04 14.3 °C 10.7 °C 1013.4 hPa East 7.4 km/h 17.7 km/h 79% 0.0 mm 47 W/m2
07:09 14.3 °C 10.7 °C 1013.5 hPa East 6.4 km/h 16.1 km/h 78.8% 0.0 mm 42 W/m2
07:14 14.3 °C 10.7 °C 1013.5 hPa East 7.4 km/h 17.7 km/h 79% 0.0 mm 46 W/m2
07:19 14.3 °C 10.7 °C 1013.6 hPa East 8 km/h 19.3 km/h 79% 0.0 mm 65 W/m2
07:24 14.3 °C 10.6 °C 1013.7 hPa East 8 km/h 20.9 km/h 79% 0.0 mm 69 W/m2
07:29 14.2 °C 10.6 °C 1013.8 hPa East 8 km/h 20.9 km/h 79.2% 0.0 mm 67 W/m2
07:34 14.2 °C 10.8 °C 1013.9 hPa East 8 km/h 20.9 km/h 80% 0.0 mm 72 W/m2
07:39 14.2 °C 10.8 °C 1013.9 hPa East 7.4 km/h 20.9 km/h 80% 0.0 mm 69 W/m2
07:44 14.2 °C 10.8 °C 1014.0 hPa East 8 km/h 20.9 km/h 80% 0.0 mm 67 W/m2
07:49 14 °C 10.7 °C 1014.1 hPa East 8 km/h 20.9 km/h 80% 0.0 mm 81 W/m2
07:54 13.9 °C 10.7 °C 1014.1 hPa East 8 km/h 24.1 km/h 80.9% 0.0 mm 104 W/m2
07:59 13.9 °C 10.7 °C 1014.2 hPa East 8.4 km/h 24.1 km/h 81% 0.0 mm 142 W/m2
08:04 14 °C 10.8 °C 1014.3 hPa East 8 km/h 24.1 km/h 81% 0.0 mm 169 W/m2
08:09 14.1 °C 10.9 °C 1014.4 hPa East 7.1 km/h 17.7 km/h 80.8% 0.0 mm 181 W/m2
08:14 14.2 °C 10.8 °C 1014.5 hPa East 6.4 km/h 16.1 km/h 80% 0.0 mm 179 W/m2
08:19 14.4 °C 11 °C 1014.6 hPa ENE 5.5 km/h 19.3 km/h 79.7% 0.0 mm 195 W/m2
08:24 14.6 °C 10.8 °C 1014.7 hPa East 6.4 km/h 19.3 km/h 78.1% 0.0 mm 202 W/m2
08:29 14.7 °C 10.9 °C 1014.7 hPa East 7.4 km/h 19.3 km/h 77.8% 0.0 mm 216 W/m2
08:34 14.9 °C 10.9 °C 1014.9 hPa East 6.4 km/h 16.1 km/h 77% 0.0 mm 206 W/m2
08:39 14.9 °C 10.8 °C 1014.9 hPa ENE 6.4 km/h 16.1 km/h 76.6% 0.0 mm 234 W/m2
08:44 15.1 °C 10.8 °C 1014.9 hPa ENE 7.4 km/h 17.7 km/h 75.8% 0.0 mm 234 W/m2
08:49 15.3 °C 10.9 °C 1014.9 hPa East 6.4 km/h 17.7 km/h 75.2% 0.0 mm 218 W/m2
08:54 15.4 °C 10.9 °C 1014.9 hPa East 5.5 km/h 17.7 km/h 74.3% 0.0 mm 202 W/m2
08:59 15.4 °C 10.8 °C 1014.9 hPa East 6.4 km/h 17.7 km/h 74% 0.0 mm 192 W/m2
09:04 15.5 °C 10.9 °C 1014.9 hPa East 6.4 km/h 17.7 km/h 74.2% 0.0 mm 188 W/m2
09:09 15.6 °C 11 °C 1015.0 hPa ENE 5.1 km/h 17.7 km/h 73.9% 0.0 mm 137 W/m2
09:14 15.6 °C 10.9 °C 1015.0 hPa East 5.1 km/h 16.1 km/h 73.7% 0.0 mm 160 W/m2
09:19 15.6 °C 10.9 °C 1015.1 hPa East 5.1 km/h 16.1 km/h 73.8% 0.0 mm 151 W/m2
09:24 15.5 °C 10.9 °C 1015.1 hPa East 4.8 km/h 16.1 km/h 73.8% 0.0 mm 163 W/m2
09:29 15.5 °C 10.9 °C 1015.1 hPa East 5.5 km/h 14.5 km/h 74.1% 0.0 mm 183 W/m2
09:34 15.6 °C 10.9 °C 1015.0 hPa East 6.4 km/h 14.5 km/h 73.4% 0.0 mm 250 W/m2
09:39 15.8 °C 11 °C 1015.0 hPa East 5.5 km/h 14.5 km/h 72.9% 0.0 mm 257 W/m2
09:44 16 °C 10.9 °C 1015.0 hPa East 4.8 km/h 12.9 km/h 72.2% 0.0 mm 207 W/m2
09:49 15.9 °C 11 °C 1015.0 hPa East 4.8 km/h 12.9 km/h 72.7% 0.0 mm 193 W/m2
09:54 15.9 °C 10.8 °C 1015.0 hPa ENE 4.8 km/h 17.7 km/h 72.2% 0.0 mm 253 W/m2
09:59 15.9 °C 10.9 °C 1014.9 hPa East 6.8 km/h 17.7 km/h 72% 0.0 mm 295 W/m2
10:04 16 °C 10.9 °C 1015.0 hPa East 7.4 km/h 17.7 km/h 71.8% 0.0 mm 295 W/m2
10:09 16.2 °C 11 °C 1015.0 hPa East 7.1 km/h 19.3 km/h 71.1% 0.0 mm 281 W/m2
10:14 16.4 °C 11 °C 1015.0 hPa East 6.8 km/h 19.3 km/h 70.4% 0.0 mm 267 W/m2
10:19 16.4 °C 11 °C 1015.1 hPa East 8 km/h 19.3 km/h 70.6% 0.0 mm 220 W/m2
10:24 16.2 °C 11.1 °C 1015.1 hPa East 8 km/h 19.3 km/h 71.5% 0.0 mm 200 W/m2
10:29 16.1 °C 10.7 °C 1015.1 hPa East 6.8 km/h 19.3 km/h 70.5% 0.0 mm 285 W/m2
10:34 16.2 °C 10.8 °C 1015.1 hPa East 6.4 km/h 17.7 km/h 70.8% 0.0 mm 353 W/m2
10:39 16.4 °C 11 °C 1015.1 hPa ENE 5.8 km/h 17.7 km/h 70.2% 0.0 mm 313 W/m2
10:44 16.4 °C 11 °C 1015.0 hPa East 4.8 km/h 16.1 km/h 70.2% 0.0 mm 186 W/m2
10:49 16.4 °C 11.1 °C 1015.0 hPa ENE 3.5 km/h 14.5 km/h 70.7% 0.0 mm 255 W/m2
10:54 16.5 °C 11.1 °C 1015.0 hPa ENE 4.5 km/h 14.5 km/h 70.6% 0.0 mm 285 W/m2
10:59 16.5 °C 11.1 °C 1014.9 hPa NE 5.1 km/h 14.5 km/h 70.3% 0.0 mm 322 W/m2
11:04 16.7 °C 11.1 °C 1015.0 hPa NNE 4.8 km/h 11.3 km/h 69.7% 0.0 mm 304 W/m2
11:09 17 °C 11.1 °C 1015.0 hPa ENE 3.5 km/h 17.7 km/h 68.2% 0.0 mm 295 W/m2
11:14 17.3 °C 11.2 °C 1014.9 hPa ENE 4.8 km/h 17.7 km/h 67.6% 0.0 mm 425 W/m2
11:19 17.6 °C 11.2 °C 1014.9 hPa ENE 4.8 km/h 17.7 km/h 66.1% 0.0 mm 527 W/m2
11:24 17.8 °C 11.1 °C 1014.8 hPa ENE 5.1 km/h 17.7 km/h 64.9% 0.0 mm 496 W/m2
11:29 17.9 °C 11.2 °C 1014.8 hPa ENE 6.4 km/h 17.7 km/h 64.7% 0.0 mm 613 W/m2
11:34 18.4 °C 11.5 °C 1014.6 hPa ENE 6.1 km/h 17.7 km/h 64% 0.0 mm 673 W/m2
11:39 18.9 °C 11.3 °C 1014.5 hPa East 5.1 km/h 19.3 km/h 61.5% 0.0 mm 675 W/m2
11:44 19.2 °C 11.3 °C 1014.6 hPa ESE 6.4 km/h 19.3 km/h 60.5% 0.0 mm 559 W/m2
11:49 19.3 °C 11.4 °C 1014.6 hPa East 6.4 km/h 19.3 km/h 60.2% 0.0 mm 483 W/m2
11:54 19.1 °C 11.2 °C 1014.6 hPa ENE 6.4 km/h 17.7 km/h 60.4% 0.0 mm 584 W/m2
11:59 19.3 °C 11.8 °C 1014.6 hPa ENE 6.4 km/h 17.7 km/h 62.1% 0.0 mm 584 W/m2
12:04 19.2 °C 11.4 °C 1014.6 hPa ENE 6.1 km/h 17.7 km/h 60.5% 0.0 mm 439 W/m2
12:09 19.2 °C 11.6 °C 1014.5 hPa NE 4.8 km/h 14.5 km/h 61.5% 0.0 mm 499 W/m2
12:14 19.4 °C 11.4 °C 1014.5 hPa NE 4.8 km/h 14.5 km/h 60% 0.0 mm 612 W/m2
12:19 19.5 °C 11.4 °C 1014.5 hPa NE 3.5 km/h 11.3 km/h 59.7% 0.0 mm 605 W/m2
12:24 19.8 °C 11.6 °C 1014.4 hPa ENE 4.8 km/h 11.3 km/h 59.2% 0.0 mm 533 W/m2
12:29 20.2 °C 11.7 °C 1014.3 hPa East 5.1 km/h 14.5 km/h 58.3% 0.0 mm 596 W/m2
12:34 20.3 °C 11.4 °C 1014.2 hPa East 6.4 km/h 14.5 km/h 56.8% 0.0 mm 592 W/m2
12:39 20 °C 11.4 °C 1014.0 hPa East 5.5 km/h 14.5 km/h 57.5% 0.0 mm 592 W/m2
12:44 20.6 °C 12 °C 1014.0 hPa ESE 3.2 km/h 16.1 km/h 57.6% 0.0 mm 534 W/m2
12:49 20.9 °C 12 °C 1014.0 hPa SE 3.2 km/h 16.1 km/h 56.7% 0.0 mm 875 W/m2
12:54 21.3 °C 11.7 °C 1013.9 hPa SE 4.2 km/h 16.1 km/h 54.4% 0.0 mm 875 W/m2
12:59 21 °C 11.5 °C 1013.9 hPa ESE 3.2 km/h 12.9 km/h 54.6% 0.0 mm 482 W/m2
13:04 21.1 °C 11.6 °C 1013.9 hPa East 3.5 km/h 17.7 km/h 54.4% 0.0 mm 561 W/m2
13:09 21.4 °C 11.4 °C 1013.9 hPa East 5.5 km/h 17.7 km/h 53.1% 0.0 mm 689 W/m2
13:14 21.4 °C 11.6 °C 1013.8 hPa ESE 5.5 km/h 17.7 km/h 53.5% 0.0 mm 561 W/m2
13:19 21.4 °C 11.7 °C 1013.7 hPa East 5.1 km/h 16.1 km/h 54% 0.0 mm 1332 W/m2
13:24 22.3 °C 11.7 °C 1013.7 hPa East 5.8 km/h 16.1 km/h 51.2% 0.0 mm 1332 W/m2
13:29 22.5 °C 11.9 °C 1013.5 hPa East 4.8 km/h 16.1 km/h 51.4% 0.0 mm 1234 W/m2
13:34 22 °C 11.6 °C 1013.3 hPa ENE 4.8 km/h 16.1 km/h 51.7% 0.0 mm 1153 W/m2
13:39 22.5 °C 12.1 °C 1013.2 hPa NE 5.5 km/h 17.7 km/h 51.9% 0.0 mm 1150 W/m2
13:44 23 °C 12.4 °C 1013.1 hPa NE 6.1 km/h 17.7 km/h 51.3% 0.0 mm 1136 W/m2
13:49 23.2 °C 12.4 °C 1013.0 hPa NE 6.4 km/h 17.7 km/h 50.7% 0.0 mm 1062 W/m2
13:54 23.5 °C 12.3 °C 1012.8 hPa NE 7.4 km/h 19.3 km/h 49.7% 0.0 mm 1097 W/m2
13:59 23.6 °C 12.3 °C 1012.7 hPa ENE 9 km/h 19.3 km/h 49.2% 0.0 mm 1067 W/m2
14:04 23.4 °C 12.3 °C 1012.7 hPa ENE 8 km/h 19.3 km/h 49.8% 0.0 mm 1125 W/m2
14:09 24.1 °C 12.7 °C 1012.6 hPa ENE 6.4 km/h 19.3 km/h 49% 0.0 mm 1125 W/m2
14:14 24.5 °C 12.3 °C 1012.6 hPa East 4.8 km/h 16.1 km/h 46.5% 0.0 mm 1046 W/m2
14:19 24.6 °C 12.4 °C 1012.5 hPa East 4.8 km/h 17.7 km/h 46.6% 0.0 mm 1030 W/m2
14:24 24.5 °C 12.5 °C 1012.4 hPa ENE 6.1 km/h 17.7 km/h 47.1% 0.0 mm 1030 W/m2
14:29 24.6 °C 12.2 °C 1012.5 hPa ENE 6.8 km/h 17.7 km/h 46.2% 0.0 mm 914 W/m2
14:34 24.2 °C 12.2 °C 1012.5 hPa NE 6.4 km/h 17.7 km/h 47% 0.0 mm 930 W/m2
14:39 23.6 °C 12.1 °C 1012.4 hPa NNE 7.1 km/h 17.7 km/h 48.6% 0.0 mm 1009 W/m2
14:44 23.7 °C 12.3 °C 1012.3 hPa NNE 8 km/h 17.7 km/h 49% 0.0 mm 930 W/m2
14:49 24.2 °C 12.5 °C 1012.3 hPa NE 7.1 km/h 17.7 km/h 47.8% 0.0 mm 853 W/m2
14:54 24.3 °C 12.1 °C 1012.3 hPa NE 6.4 km/h 17.7 km/h 46.6% 0.0 mm 946 W/m2
14:59 24 °C 12.4 °C 1012.2 hPa NE 4.8 km/h 14.5 km/h 48.3% 0.0 mm 926 W/m2
15:04 24.5 °C 12.8 °C 1012.2 hPa NNE 4.8 km/h 17.7 km/h 48.2% 0.0 mm 977 W/m2
15:09 24.6 °C 12.6 °C 1012.1 hPa NE 6.4 km/h 17.7 km/h 47.3% 0.0 mm 965 W/m2
15:14 25 °C 12.6 °C 1012.1 hPa ENE 7.1 km/h 17.7 km/h 46.2% 0.0 mm 905 W/m2
15:19 24.5 °C 12.2 °C 1012.1 hPa ENE 6.1 km/h 16.1 km/h 46.3% 0.0 mm 754 W/m2
15:24 24.6 °C 13 °C 1012.0 hPa NE 5.1 km/h 16.1 km/h 48.5% 0.0 mm 745 W/m2
15:29 24.6 °C 12.5 °C 1012.1 hPa NE 7.1 km/h 16.1 km/h 46.8% 0.0 mm 874 W/m2
15:34 24.7 °C 12.8 °C 1012.1 hPa NE 6.8 km/h 16.1 km/h 47.5% 0.0 mm 940 W/m2
15:39 25.9 °C 13.1 °C 1012.1 hPa NE 4.8 km/h 19.3 km/h 45.2% 0.0 mm 879 W/m2
15:44 25.6 °C 12.3 °C 1012.1 hPa NE 4.8 km/h 19.3 km/h 43.6% 0.0 mm 837 W/m2
15:49 25.4 °C 12.3 °C 1012.0 hPa NE 5.1 km/h 19.3 km/h 44.3% 0.0 mm 802 W/m2
15:54 25.1 °C 12.3 °C 1011.9 hPa NE 6.4 km/h 16.1 km/h 44.9% 0.0 mm 795 W/m2
15:59 25.9 °C 13 °C 1011.7 hPa NE 5.8 km/h 16.1 km/h 44.9% 0.0 mm 795 W/m2
16:04 25.7 °C 12.7 °C 1011.6 hPa ENE 4.8 km/h 14.5 km/h 44.6% 0.0 mm 775 W/m2
16:09 25.3 °C 12.5 °C 1011.4 hPa ENE 4.8 km/h 19.3 km/h 44.8% 0.0 mm 775 W/m2
16:14 25.2 °C 12.2 °C 1011.2 hPa NE 6.1 km/h 20.9 km/h 44.3% 0.0 mm 722 W/m2
16:19 24.8 °C 11.9 °C 1011.1 hPa NE 8 km/h 20.9 km/h 44.6% 0.0 mm 694 W/m2
16:24 24.5 °C 12.4 °C 1011.2 hPa NNE 5.8 km/h 20.9 km/h 46.9% 0.0 mm 689 W/m2
16:29 25.2 °C 12.7 °C 1011.1 hPa NE 5.5 km/h 19.3 km/h 45.8% 0.0 mm 666 W/m2
16:34 25.2 °C 12.7 °C 1011.1 hPa NE 6.4 km/h 19.3 km/h 45.7% 0.0 mm 640 W/m2
16:39 25.7 °C 13 °C 1011.1 hPa NE 6.4 km/h 19.3 km/h 45.3% 0.0 mm 615 W/m2
16:44 26 °C 13 °C 1011.1 hPa ENE 6.1 km/h 19.3 km/h 44.7% 0.0 mm 585 W/m2
16:49 25.6 °C 12.6 °C 1011.0 hPa ENE 6.4 km/h 17.7 km/h 44.5% 0.0 mm 543 W/m2
16:54 25.9 °C 12.8 °C 1010.9 hPa ENE 6.4 km/h 17.7 km/h 44.5% 0.0 mm 499 W/m2
16:59 25.7 °C 13 °C 1010.7 hPa ENE 6.1 km/h 17.7 km/h 45.4% 0.0 mm 466 W/m2
17:04 25.9 °C 13.3 °C 1010.7 hPa NE 6.4 km/h 16.1 km/h 45.9% 0.0 mm 432 W/m2
17:09 25.8 °C 13.1 °C 1010.8 hPa ENE 6.4 km/h 16.1 km/h 45.2% 0.0 mm 408 W/m2
17:14 25.5 °C 13 °C 1010.8 hPa East 6.4 km/h 16.1 km/h 46% 0.0 mm 387 W/m2
17:19 25.8 °C 13 °C 1010.6 hPa East 5.8 km/h 17.7 km/h 45.3% 0.0 mm 373 W/m2
17:24 25.7 °C 13 °C 1010.6 hPa East 5.8 km/h 17.7 km/h 45.2% 0.0 mm 367 W/m2
17:29 25.8 °C 13.1 °C 1010.6 hPa East 6.4 km/h 17.7 km/h 45.5% 0.0 mm 366 W/m2
17:34 25.6 °C 13.1 °C 1010.5 hPa East 5.8 km/h 16.1 km/h 45.9% 0.0 mm 367 W/m2
17:39 25.9 °C 13.2 °C 1010.3 hPa ENE 5.5 km/h 19.3 km/h 45.5% 0.0 mm 367 W/m2
17:44 25.4 °C 13 °C 1010.5 hPa ENE 7.4 km/h 19.3 km/h 46.1% 0.0 mm 360 W/m2
17:49 24.9 °C 12.7 °C 1010.5 hPa ENE 7.4 km/h 19.3 km/h 46.7% 0.0 mm 359 W/m2
17:54 25.1 °C 13.4 °C 1010.5 hPa ENE 5.5 km/h 17.7 km/h 48.2% 0.0 mm 346 W/m2
17:59 25.3 °C 13.1 °C 1010.4 hPa NE 5.5 km/h 16.1 km/h 46.7% 0.0 mm 336 W/m2
18:04 24.8 °C 13.1 °C 1010.3 hPa ENE 6.4 km/h 17.7 km/h 48.3% 0.0 mm 320 W/m2
18:09 24.9 °C 13.2 °C 1010.3 hPa ENE 6.4 km/h 20.9 km/h 48.2% 0.0 mm 297 W/m2
18:14 24.9 °C 13 °C 1010.3 hPa East 7.4 km/h 22.5 km/h 47.7% 0.0 mm 260 W/m2
18:19 24.8 °C 12.9 °C 1010.4 hPa East 8 km/h 22.5 km/h 47.8% 0.0 mm 213 W/m2
18:24 24.6 °C 13.2 °C 1010.4 hPa East 7.1 km/h 22.5 km/h 49% 0.0 mm 214 W/m2
18:29 24.5 °C 13.1 °C 1010.4 hPa East 6.4 km/h 16.1 km/h 49.2% 0.0 mm 214 W/m2
18:34 24.3 °C 13.2 °C 1010.5 hPa East 7.4 km/h 17.7 km/h 50% 0.0 mm 213 W/m2
18:39 24.1 °C 13.2 °C 1010.5 hPa East 8 km/h 17.7 km/h 50.6% 0.0 mm 190 W/m2
18:44 23.7 °C 13.1 °C 1010.5 hPa East 7.1 km/h 17.7 km/h 51.6% 0.0 mm 172 W/m2
18:49 23.5 °C 13.3 °C 1010.6 hPa East 6.1 km/h 17.7 km/h 52.7% 0.0 mm 149 W/m2
18:54 23.4 °C 13.2 °C 1010.7 hPa East 5.1 km/h 20.9 km/h 52.7% 0.0 mm 137 W/m2
18:59 23.2 °C 13.2 °C 1010.7 hPa East 6.4 km/h 20.9 km/h 53.2% 0.0 mm 118 W/m2
19:04 23 °C 13.2 °C 1010.7 hPa East 6.4 km/h 20.9 km/h 54% 0.0 mm 100 W/m2
19:09 22.8 °C 13.2 °C 1010.8 hPa East 6.8 km/h 19.3 km/h 54.5% 0.0 mm 83 W/m2
19:14 22.7 °C 13.2 °C 1010.9 hPa East 6.7 km/h 19.3 km/h 55% 0.0 mm 67 W/m2
19:19 22.5 °C 13.1 °C 1011.1 hPa East 8 km/h 19.3 km/h 55.4% 0.0 mm 54 W/m2
19:24 22.2 °C 13.2 °C 1011.3 hPa East 8 km/h 19.3 km/h 56.7% 0.0 mm 42 W/m2
19:29 22.1 °C 13.2 °C 1011.4 hPa East 6.2 km/h 17.7 km/h 57% 0.0 mm 33 W/m2
19:34 22 °C 13.3 °C 1011.4 hPa East 4.8 km/h 14.5 km/h 57.8% 0.0 mm 25 W/m2
19:39 21.7 °C 13.3 °C 1011.5 hPa East 4.8 km/h 14.5 km/h 58.8% 0.0 mm 21 W/m2
19:44 21.4 °C 13.2 °C 1011.5 hPa East 6.4 km/h 17.7 km/h 59.5% 0.0 mm 18 W/m2
19:49 21.1 °C 13.2 °C 1011.4 hPa East 6.4 km/h 17.7 km/h 60.9% 0.0 mm 14 W/m2
19:54 20.8 °C 13.2 °C 1011.5 hPa East 6.4 km/h 17.7 km/h 61.9% 0.0 mm 11 W/m2
19:59 20.6 °C 13.2 °C 1011.7 hPa East 6.4 km/h 16.1 km/h 62.3% 0.0 mm 7 W/m2
20:04 20.4 °C 13 °C 1011.8 hPa East 7.1 km/h 14.5 km/h 62.3% 0.0 mm 5 W/m2
20:09 20.2 °C 13 °C 1011.9 hPa East 6.8 km/h 14.5 km/h 63% 0.0 mm 0 W/m2
20:14 20.1 °C 13 °C 1012.0 hPa East 6.8 km/h 14.5 km/h 63.7% 0.0 mm 0 W/m2
20:19 20 °C 13 °C 1012.0 hPa ESE 6.1 km/h 19.3 km/h 64.2% 0.0 mm 0 W/m2
20:24 19.8 °C 13 °C 1012.0 hPa ESE 6.4 km/h 19.3 km/h 64.9% 0.0 mm 0 W/m2
20:29 19.6 °C 12.8 °C 1012.0 hPa East 7.1 km/h 19.3 km/h 65.1% 0.0 mm 0 W/m2
20:34 19.4 °C 12.9 °C 1012.0 hPa East 6.4 km/h 17.7 km/h 66% 0.0 mm 0 W/m2
20:39 19.3 °C 12.9 °C 1012.1 hPa East 6.4 km/h 14.5 km/h 66.5% 0.0 mm 0 W/m2
20:44 19.1 °C 12.9 °C 1012.1 hPa East 6.4 km/h 14.5 km/h 67% 0.0 mm 0 W/m2
20:49 19 °C 12.9 °C 1012.1 hPa East 6.1 km/h 12.9 km/h 68% 0.0 mm 0 W/m2
20:54 18.8 °C 12.8 °C 1012.3 hPa East 4.8 km/h 14.5 km/h 68.4% 0.0 mm 0 W/m2
20:59 18.6 °C 12.9 °C 1012.3 hPa East 4.8 km/h 17.7 km/h 69% 0.0 mm 0 W/m2
21:04 18.6 °C 12.8 °C 1012.3 hPa East 6.1 km/h 17.7 km/h 69.2% 0.0 mm 0 W/m2
21:09 18.5 °C 12.9 °C 1012.4 hPa East 6.4 km/h 17.7 km/h 70% 0.0 mm 0 W/m2
21:14 18.4 °C 12.8 °C 1012.5 hPa East 6.7 km/h 16.1 km/h 70% 0.0 mm 0 W/m2
21:19 18.2 °C 12.9 °C 1012.5 hPa East 7.1 km/h 16.1 km/h 70.8% 0.0 mm 0 W/m2
21:24 18.1 °C 12.8 °C 1012.6 hPa East 7.4 km/h 19.3 km/h 71% 0.0 mm 0 W/m2
21:29 18.1 °C 12.8 °C 1012.7 hPa East 8 km/h 19.3 km/h 71.4% 0.0 mm 0 W/m2
21:34 17.9 °C 12.8 °C 1012.8 hPa East 6.8 km/h 19.3 km/h 72.1% 0.0 mm 0 W/m2
21:39 17.8 °C 12.9 °C 1012.8 hPa East 6.1 km/h 17.7 km/h 73% 0.0 mm 0 W/m2
Compliments of Weather Underground - 1.5 mb

Latitude S 35° 13' 00" Longitude E 149° 01' 22" Elevation 577 m
Page updated 30/11/2020 9:40:03 PM.
Powered by Cumulus MX v3.2.0 (3056)